createdAt,value
2019-03-12T00:01:21.629Z,17.10
2019-03-12T00:04:10.244Z,17.10
2019-03-12T00:06:58.536Z,17.10
2019-03-12T00:09:46.724Z,17.10
2019-03-12T00:12:35.634Z,17.10
2019-03-12T00:15:24.523Z,17.00
2019-03-12T00:18:12.784Z,17.00
2019-03-12T00:21:01.200Z,17.00
2019-03-12T00:23:49.473Z,17.00
2019-03-12T00:26:38.184Z,16.90
2019-03-12T00:29:26.195Z,16.90
2019-03-12T00:32:14.593Z,16.90
2019-03-12T00:35:03.418Z,16.90
2019-03-12T00:37:51.823Z,16.80
2019-03-12T00:40:40.427Z,16.80
2019-03-12T00:43:28.764Z,16.80
2019-03-12T00:46:17.368Z,16.80
2019-03-12T00:49:05.791Z,16.80
2019-03-12T00:51:54.822Z,16.80
2019-03-12T00:54:43.164Z,16.80
2019-03-12T00:57:32.323Z,16.80
2019-03-12T01:00:21.232Z,16.80
2019-03-12T01:03:09.482Z,16.80
2019-03-12T01:05:57.897Z,16.80
2019-03-12T01:08:46.813Z,16.80
2019-03-12T01:11:35.178Z,16.80
2019-03-12T01:14:23.515Z,16.80
2019-03-12T01:17:12.881Z,16.80
2019-03-12T01:20:02.596Z,16.80
2019-03-12T01:22:50.775Z,16.80
2019-03-12T01:25:40.427Z,16.80
2019-03-12T01:28:29.349Z,16.80
2019-03-12T01:31:17.619Z,16.80
2019-03-12T01:34:05.931Z,16.80
2019-03-12T01:36:55.510Z,16.80
2019-03-12T01:39:44.144Z,16.80
2019-03-12T01:42:33.194Z,16.70
2019-03-12T01:45:21.991Z,16.70
2019-03-12T01:48:10.451Z,16.70
2019-03-12T01:50:58.830Z,16.80
2019-03-12T01:53:46.938Z,16.70
2019-03-12T01:56:35.315Z,16.70
2019-03-12T01:59:23.783Z,16.70
2019-03-12T02:02:12.281Z,16.70
2019-03-12T02:05:00.766Z,16.70
2019-03-12T02:07:49.014Z,16.70
2019-03-12T02:10:37.705Z,16.70
2019-03-12T02:13:26.595Z,16.70
2019-03-12T02:16:15.725Z,16.60
2019-03-12T02:19:04.162Z,16.60
2019-03-12T02:21:53.841Z,16.60
2019-03-12T02:24:52.800Z,16.50
2019-03-12T02:27:33.915Z,16.50
2019-03-12T02:30:23.085Z,16.50
2019-03-12T02:33:11.374Z,16.50
2019-03-12T02:35:59.676Z,16.50
2019-03-12T02:38:48.035Z,16.50
2019-03-12T02:41:36.643Z,16.40
2019-03-12T02:44:25.346Z,16.40
2019-03-12T02:47:13.683Z,16.40
2019-03-12T02:50:02.392Z,16.40
2019-03-12T02:52:51.197Z,16.40
2019-03-12T02:55:39.605Z,16.40
2019-03-12T02:58:28.636Z,16.40
2019-03-12T03:01:16.930Z,16.40
2019-03-12T03:04:05.530Z,16.40
2019-03-12T03:06:55.846Z,16.40
2019-03-12T03:09:43.941Z,16.40
2019-03-12T03:12:32.619Z,16.30
2019-03-12T03:15:34.310Z,16.40
2019-03-12T03:18:22.954Z,16.40
2019-03-12T03:21:11.329Z,16.40
2019-03-12T03:24:00.274Z,16.30
2019-03-12T03:26:48.609Z,16.30
2019-03-12T03:29:37.141Z,16.30
2019-03-12T03:32:25.542Z,16.30
2019-03-12T03:35:14.450Z,16.30
2019-03-12T03:38:02.880Z,16.30
2019-03-12T03:40:51.165Z,16.30
2019-03-12T03:43:40.045Z,16.30
2019-03-12T03:46:28.324Z,16.30
2019-03-12T03:49:17.071Z,16.30
2019-03-12T03:52:05.966Z,16.30
2019-03-12T03:54:54.531Z,16.30
2019-03-12T03:57:43.551Z,16.30
2019-03-12T04:00:32.233Z,16.40
2019-03-12T04:03:20.490Z,16.40
2019-03-12T04:06:09.706Z,16.30
2019-03-12T04:08:58.611Z,16.30
2019-03-12T04:11:47.204Z,16.30
2019-03-12T04:14:35.951Z,16.30
2019-03-12T04:17:24.630Z,16.30
2019-03-12T04:20:15.744Z,16.30
2019-03-12T04:23:04.191Z,16.40
2019-03-12T04:25:52.900Z,16.40
2019-03-12T04:28:42.094Z,16.50
2019-03-12T04:31:31.100Z,16.60
2019-03-12T04:34:20.383Z,16.70
2019-03-12T04:37:08.880Z,16.80
2019-03-12T04:39:57.896Z,16.90
2019-03-12T04:42:46.357Z,17.00
2019-03-12T04:45:34.723Z,17.10
2019-03-12T04:48:23.668Z,17.20
2019-03-12T04:51:13.207Z,17.30
2019-03-12T04:54:01.358Z,17.30
2019-03-12T04:56:50.466Z,17.40
2019-03-12T04:59:39.497Z,17.40
2019-03-12T05:02:28.283Z,17.50
2019-03-12T05:05:16.796Z,17.50
2019-03-12T05:08:05.487Z,17.50
2019-03-12T05:10:54.083Z,17.50
2019-03-12T05:13:42.375Z,17.50
2019-03-12T05:16:30.596Z,17.40
2019-03-12T05:19:19.669Z,17.50
2019-03-12T05:22:08.655Z,17.50
2019-03-12T05:24:57.696Z,17.40
2019-03-12T05:27:45.962Z,17.40
2019-03-12T05:30:34.713Z,17.40
2019-03-12T05:33:23.310Z,17.30
2019-03-12T05:36:11.632Z,17.30
2019-03-12T05:38:59.988Z,17.30
2019-03-12T05:41:48.946Z,17.30
2019-03-12T05:44:39.234Z,17.20
2019-03-12T05:47:28.102Z,17.20
2019-03-12T05:50:21.415Z,17.20
2019-03-12T05:53:13.243Z,17.10
2019-03-12T05:56:01.730Z,17.10
2019-03-12T05:58:50.156Z,17.10
2019-03-12T06:01:39.061Z,17.10
2019-03-12T06:04:27.374Z,17.10
2019-03-12T06:07:16.853Z,17.00
2019-03-12T06:10:08.268Z,17.10
2019-03-12T06:12:56.814Z,17.10
2019-03-12T06:15:45.124Z,17.00
2019-03-12T06:18:33.946Z,17.00
2019-03-12T06:21:22.496Z,17.00
2019-03-12T06:24:11.253Z,17.00
2019-03-12T06:26:59.766Z,17.00
2019-03-12T06:29:48.633Z,16.90
2019-03-12T06:32:55.321Z,16.90
2019-03-12T06:35:54.306Z,16.90
2019-03-12T06:38:44.283Z,16.80
2019-03-12T06:41:33.930Z,16.80
2019-03-12T06:44:31.346Z,16.80
2019-03-12T06:47:24.428Z,16.80
2019-03-12T06:50:30.595Z,16.90
2019-03-12T06:53:23.399Z,16.90
2019-03-12T06:56:29.565Z,16.90
2019-03-12T06:59:22.822Z,16.90
2019-03-12T07:02:18.283Z,16.90
2019-03-12T07:05:17.277Z,16.90
2019-03-12T07:08:09.691Z,16.90
2019-03-12T07:10:59.715Z,17.00
2019-03-12T07:13:58.311Z,17.00
2019-03-12T07:16:51.571Z,17.10
2019-03-12T07:19:44.355Z,17.10
2019-03-12T07:22:34.624Z,17.10
2019-03-12T07:25:30.753Z,17.10
2019-03-12T07:28:23.277Z,17.10
2019-03-12T07:31:13.120Z,17.20
2019-03-12T07:34:03.415Z,17.20
2019-03-12T07:36:53.763Z,17.30
2019-03-12T07:39:43.975Z,17.30
2019-03-12T07:42:36.864Z,17.40
2019-03-12T07:45:35.883Z,17.40
2019-03-12T07:48:34.814Z,17.40
2019-03-12T07:51:40.763Z,17.50
2019-03-12T07:54:30.541Z,17.50
2019-03-12T07:57:28.969Z,17.50
2019-03-12T08:00:25.192Z,17.60
2019-03-12T08:03:24.235Z,17.60
2019-03-12T08:06:26.336Z,17.60
2019-03-12T08:09:28.251Z,17.60
2019-03-12T08:12:21.554Z,17.70
2019-03-12T08:15:30.462Z,17.70
2019-03-12T08:18:35.477Z,17.80
2019-03-12T08:21:27.168Z,17.80
2019-03-12T08:24:19.907Z,17.90
2019-03-12T08:27:10.041Z,17.90
2019-03-12T08:29:59.980Z,17.90
2019-03-12T08:32:49.855Z,17.90
2019-03-12T08:35:45.210Z,18.00
2019-03-12T08:38:37.766Z,18.10
2019-03-12T08:41:33.860Z,18.20
2019-03-12T08:44:26.949Z,18.20
2019-03-12T08:47:28.927Z,18.20
2019-03-12T08:50:21.831Z,18.20
2019-03-12T08:53:15.319Z,18.20
2019-03-12T08:56:07.791Z,18.20
2019-03-12T08:59:14.162Z,18.20
2019-03-12T09:02:22.477Z,18.20
2019-03-12T09:05:15.172Z,18.20
2019-03-12T09:08:20.159Z,18.20
2019-03-12T09:11:09.944Z,18.30
2019-03-12T09:14:02.739Z,18.20
2019-03-12T09:16:52.970Z,18.30
2019-03-12T09:19:52.880Z,18.30
2019-03-12T09:22:45.627Z,18.30
2019-03-12T09:25:43.991Z,18.30
2019-03-12T09:28:40.134Z,18.30
2019-03-12T09:31:30.747Z,18.30
2019-03-12T09:34:20.349Z,18.30
2019-03-12T09:37:16.317Z,18.40
2019-03-12T09:40:09.736Z,18.30
2019-03-12T09:43:15.914Z,18.40
2019-03-12T09:46:06.337Z,18.40
2019-03-12T09:49:12.285Z,18.40
2019-03-12T09:52:02.576Z,18.40
2019-03-12T09:54:53.263Z,18.40
2019-03-12T09:57:45.935Z,18.40
2019-03-12T10:00:44.554Z,18.50
2019-03-12T10:03:34.992Z,18.50
2019-03-12T10:06:32.356Z,18.40
2019-03-12T10:09:28.209Z,18.40
2019-03-12T10:12:23.902Z,18.40
2019-03-12T10:15:14.103Z,18.40
2019-03-12T10:18:03.955Z,18.40
2019-03-12T10:20:54.067Z,18.50
2019-03-12T10:23:46.723Z,18.50
2019-03-12T10:26:45.514Z,18.50
2019-03-12T10:29:35.333Z,18.50
2019-03-12T10:32:25.634Z,18.50
2019-03-12T10:35:15.900Z,18.50
2019-03-12T10:38:42.181Z,18.50
2019-03-12T10:41:32.423Z,18.60
2019-03-12T10:44:22.541Z,18.60
2019-03-12T10:47:12.521Z,18.60
2019-03-12T10:50:00.825Z,18.60
2019-03-12T10:52:49.092Z,18.60
2019-03-12T10:55:37.718Z,18.50
2019-03-12T10:58:26.346Z,18.50
2019-03-12T11:01:15.180Z,18.50
2019-03-12T11:04:03.782Z,18.50
2019-03-12T11:06:52.063Z,18.50
2019-03-12T11:09:40.863Z,18.50
2019-03-12T11:12:29.487Z,18.50
2019-03-12T11:15:18.294Z,18.50
2019-03-12T11:18:07.460Z,18.50
2019-03-12T11:20:58.733Z,18.50
2019-03-12T11:23:46.432Z,18.50
2019-03-12T11:26:34.744Z,18.50
2019-03-12T11:29:23.328Z,18.50
2019-03-12T11:32:11.389Z,18.50
2019-03-12T11:34:59.706Z,18.50
2019-03-12T11:37:47.843Z,18.50
2019-03-12T11:40:36.253Z,18.50
2019-03-12T11:43:25.489Z,18.50
2019-03-12T11:46:14.061Z,18.50
2019-03-12T11:49:03.038Z,18.50
2019-03-12T11:51:52.039Z,18.50
2019-03-12T11:54:40.689Z,18.50
2019-03-12T11:57:29.428Z,18.40
2019-03-12T12:00:27.686Z,18.40
2019-03-12T12:03:16.167Z,18.50
2019-03-12T12:06:05.411Z,18.40
2019-03-12T12:08:54.135Z,18.40
2019-03-12T12:11:42.631Z,18.40
2019-03-12T12:14:31.377Z,18.50
2019-03-12T12:17:19.653Z,18.50
2019-03-12T12:20:10.684Z,18.50
2019-03-12T12:22:59.083Z,18.50
2019-03-12T12:25:47.374Z,18.50
2019-03-12T12:28:35.962Z,18.50
2019-03-12T12:31:24.502Z,18.50
2019-03-12T12:34:13.811Z,18.50
2019-03-12T12:37:02.029Z,18.50
2019-03-12T12:39:51.002Z,18.50
2019-03-12T12:42:39.335Z,18.50
2019-03-12T12:45:39.359Z,18.50
2019-03-12T12:48:28.446Z,18.50
2019-03-12T12:51:16.565Z,18.50
2019-03-12T12:54:04.947Z,18.50
2019-03-12T12:56:53.348Z,18.50
2019-03-12T12:59:42.456Z,18.60
2019-03-12T13:02:31.458Z,18.50
2019-03-12T13:05:19.817Z,18.60
2019-03-12T13:08:08.588Z,18.60
2019-03-12T13:10:57.431Z,18.60
2019-03-12T13:13:45.878Z,18.60
2019-03-12T13:16:34.458Z,18.60
2019-03-12T13:19:23.416Z,18.60
2019-03-12T13:22:12.209Z,18.60
2019-03-12T13:25:00.924Z,18.60
2019-03-12T13:27:49.661Z,18.60
2019-03-12T13:30:38.028Z,18.60
2019-03-12T13:33:26.903Z,18.60
2019-03-12T13:36:16.114Z,18.60
2019-03-12T13:39:06.882Z,18.60
2019-03-12T13:41:55.736Z,18.60
2019-03-12T13:44:44.318Z,18.60
2019-03-12T13:47:32.859Z,18.60
2019-03-12T13:50:21.260Z,18.60
2019-03-12T13:53:10.446Z,18.60
2019-03-12T13:55:59.116Z,18.60
2019-03-12T13:58:48.156Z,18.60
2019-03-12T14:01:36.564Z,18.60
2019-03-12T14:04:24.966Z,18.60
2019-03-12T14:07:13.918Z,18.60
2019-03-12T14:10:02.419Z,18.70
2019-03-12T14:12:53.273Z,18.60
2019-03-12T14:15:42.425Z,18.70
2019-03-12T14:18:31.551Z,18.70
2019-03-12T14:21:20.105Z,18.70
2019-03-12T14:24:08.957Z,18.80
2019-03-12T14:26:58.274Z,18.80
2019-03-12T14:29:46.669Z,18.80
2019-03-12T14:32:35.291Z,19.00
2019-03-12T14:35:23.885Z,19.20
2019-03-12T14:38:12.548Z,19.30
2019-03-12T14:41:00.836Z,19.30
2019-03-12T14:43:49.363Z,19.30
2019-03-12T14:46:38.560Z,19.30
2019-03-12T14:49:27.106Z,19.20
2019-03-12T14:52:15.407Z,19.20
2019-03-12T14:55:05.470Z,19.20
2019-03-12T14:57:54.261Z,19.20
2019-03-12T15:00:42.983Z,19.10
2019-03-12T15:03:31.404Z,19.10
2019-03-12T15:06:19.991Z,19.10
2019-03-12T15:09:11.841Z,19.00
2019-03-12T15:12:00.061Z,19.00
2019-03-12T15:14:48.986Z,19.00
2019-03-12T15:17:38.033Z,19.00
2019-03-12T15:20:26.625Z,19.00
2019-03-12T15:23:15.195Z,19.00
2019-03-12T15:26:03.932Z,18.90
2019-03-12T15:28:52.139Z,18.90
2019-03-12T15:31:40.786Z,18.90
2019-03-12T15:34:28.955Z,19.00
2019-03-12T15:37:17.580Z,18.90
2019-03-12T15:40:11.467Z,18.90
2019-03-12T15:43:00.071Z,18.90
2019-03-12T15:45:48.196Z,19.00
2019-03-12T15:48:37.533Z,19.00
2019-03-12T15:51:25.819Z,18.90
2019-03-12T15:54:14.947Z,19.00
2019-03-12T15:57:03.857Z,19.00
2019-03-12T15:59:52.299Z,19.00
2019-03-12T16:02:40.725Z,19.00
2019-03-12T16:05:29.368Z,18.90
2019-03-12T16:08:18.440Z,18.90
2019-03-12T16:11:06.902Z,18.90
2019-03-12T16:13:55.869Z,18.90
2019-03-12T16:16:44.296Z,18.90
2019-03-12T16:19:32.810Z,18.90
2019-03-12T16:22:21.337Z,18.90
2019-03-12T16:25:10.999Z,18.90
2019-03-12T16:27:59.946Z,18.90
2019-03-12T16:30:48.579Z,18.90
2019-03-12T16:33:36.965Z,18.90
2019-03-12T16:36:25.765Z,19.00
2019-03-12T16:39:14.143Z,19.00
2019-03-12T16:42:03.259Z,18.90
2019-03-12T16:44:52.299Z,18.90
2019-03-12T16:47:40.783Z,19.00
2019-03-12T16:50:29.286Z,19.00
2019-03-12T16:53:18.407Z,19.00
2019-03-12T16:56:07.190Z,19.00
2019-03-12T16:58:55.368Z,19.00
2019-03-12T17:01:43.787Z,19.00
2019-03-12T17:04:32.803Z,19.00
2019-03-12T17:07:21.261Z,19.00
2019-03-12T17:10:17.946Z,19.00
2019-03-12T17:13:06.674Z,19.00
2019-03-12T17:15:55.230Z,19.00
2019-03-12T17:18:43.736Z,19.00
2019-03-12T17:21:32.855Z,19.00
2019-03-12T17:24:21.263Z,19.10
2019-03-12T17:27:10.143Z,19.00
2019-03-12T17:29:58.855Z,19.00
2019-03-12T17:32:47.227Z,19.10
2019-03-12T17:35:38.111Z,19.00
2019-03-12T17:38:26.548Z,19.10
2019-03-12T17:41:15.534Z,19.00
2019-03-12T17:44:04.090Z,19.10
2019-03-12T17:46:52.360Z,19.00
2019-03-12T17:49:40.900Z,19.00
2019-03-12T17:52:29.613Z,19.00
2019-03-12T17:55:18.574Z,19.10
2019-03-12T17:58:07.180Z,19.00
2019-03-12T18:00:55.400Z,19.10
2019-03-12T18:03:43.994Z,19.00
2019-03-12T18:06:34.951Z,19.00
2019-03-12T18:09:22.434Z,19.00
2019-03-12T18:12:10.577Z,19.00
2019-03-12T18:15:00.049Z,19.00
2019-03-12T18:17:49.282Z,19.00
2019-03-12T18:20:39.815Z,19.00
2019-03-12T18:23:28.501Z,19.00
2019-03-12T18:26:17.356Z,19.00
2019-03-12T18:29:05.863Z,19.00
2019-03-12T18:31:54.822Z,19.00
2019-03-12T18:34:42.960Z,19.00
2019-03-12T18:37:31.066Z,19.00
2019-03-12T18:40:21.769Z,19.00
2019-03-12T18:43:10.287Z,19.00
2019-03-12T18:45:58.962Z,19.00
2019-03-12T18:48:47.222Z,19.00
2019-03-12T18:51:35.741Z,19.00
2019-03-12T18:54:24.217Z,19.00
2019-03-12T18:57:12.673Z,19.00
2019-03-12T19:00:01.031Z,19.00
2019-03-12T19:02:49.833Z,19.00
2019-03-12T19:05:38.520Z,19.00
2019-03-12T19:08:27.516Z,19.00
2019-03-12T19:11:15.853Z,19.00
2019-03-12T19:14:04.756Z,19.00
2019-03-12T19:16:53.090Z,19.00
2019-03-12T19:19:41.731Z,19.00
2019-03-12T19:22:30.135Z,19.00
2019-03-12T19:25:21.063Z,18.90
2019-03-12T19:28:09.977Z,18.90
2019-03-12T19:31:00.333Z,18.90
2019-03-12T19:33:49.315Z,18.90
2019-03-12T19:36:38.096Z,18.90
2019-03-12T19:39:27.670Z,19.00
2019-03-12T19:42:16.455Z,19.00
2019-03-12T19:45:08.878Z,19.00
2019-03-12T19:47:58.236Z,19.00
2019-03-12T19:50:46.965Z,19.00
2019-03-12T19:53:36.175Z,19.00
2019-03-12T19:56:25.624Z,19.00
2019-03-12T19:59:14.704Z,19.00
2019-03-12T20:02:15.510Z,19.00
2019-03-12T20:04:55.694Z,18.90
2019-03-12T20:07:45.279Z,19.00
2019-03-12T20:11:11.809Z,19.00
2019-03-12T20:14:19.300Z,19.00
2019-03-12T20:17:41.248Z,19.00
2019-03-12T20:20:45.566Z,19.00
2019-03-12T20:23:46.817Z,18.90
2019-03-12T20:26:55.444Z,18.90
2019-03-12T20:30:20.378Z,18.90
2019-03-12T20:33:26.812Z,19.00
2019-03-12T20:36:47.727Z,19.00
2019-03-12T20:40:12.941Z,18.90
2019-03-12T20:43:19.902Z,18.90
2019-03-12T20:46:32.643Z,19.00
2019-03-12T20:49:27.749Z,19.00
2019-03-12T20:52:19.203Z,19.00
2019-03-12T20:55:26.555Z,19.00
2019-03-12T20:58:30.269Z,18.90
2019-03-12T21:01:41.963Z,19.00
2019-03-12T21:04:51.813Z,18.90
2019-03-12T21:07:55.365Z,19.00
2019-03-12T21:11:02.818Z,18.90
2019-03-12T21:14:13.374Z,18.90
2019-03-12T21:17:36.738Z,18.90
2019-03-12T21:21:00.113Z,18.90
2019-03-12T21:23:51.602Z,18.90
2019-03-12T21:26:49.284Z,18.80
2019-03-12T21:29:42.905Z,18.80
2019-03-12T21:32:31.931Z,18.70
2019-03-12T21:35:20.717Z,18.70
2019-03-12T21:38:09.410Z,18.60
2019-03-12T21:40:58.360Z,18.60
2019-03-12T21:43:47.167Z,18.60
2019-03-12T21:46:35.679Z,18.50
2019-03-12T21:49:24.284Z,18.50
2019-03-12T21:52:12.975Z,18.40
2019-03-12T21:55:01.912Z,18.40
2019-03-12T21:57:50.228Z,18.40
2019-03-12T22:00:39.546Z,18.30
2019-03-12T22:03:28.268Z,18.30
2019-03-12T22:06:16.793Z,18.20
2019-03-12T22:09:07.327Z,18.20
2019-03-12T22:11:55.783Z,18.20
2019-03-12T22:14:44.740Z,18.20
2019-03-12T22:17:32.959Z,18.10
2019-03-12T22:20:21.539Z,18.10
2019-03-12T22:23:12.064Z,18.00
2019-03-12T22:26:00.217Z,18.00
2019-03-12T22:28:48.563Z,17.90
2019-03-12T22:31:37.395Z,17.90
2019-03-12T22:34:25.941Z,17.80
2019-03-12T22:37:14.456Z,17.80
2019-03-12T22:40:03.047Z,17.70
2019-03-12T22:42:51.688Z,17.70
2019-03-12T22:45:40.043Z,17.70
2019-03-12T22:48:28.907Z,17.60
2019-03-12T22:51:17.359Z,17.60
2019-03-12T22:54:06.291Z,17.50
2019-03-12T22:56:54.559Z,17.50
2019-03-12T22:59:43.237Z,17.40
2019-03-12T23:02:31.968Z,17.40
2019-03-12T23:05:20.611Z,17.30
2019-03-12T23:08:09.930Z,17.30
2019-03-12T23:10:58.160Z,17.30
2019-03-12T23:13:46.523Z,17.20
2019-03-12T23:16:35.048Z,17.20
2019-03-12T23:19:23.937Z,17.10
2019-03-12T23:22:12.755Z,17.10
2019-03-12T23:25:01.608Z,17.10
2019-03-12T23:27:50.247Z,17.00
2019-03-12T23:30:38.967Z,17.00
2019-03-12T23:33:28.461Z,17.00
2019-03-12T23:36:17.684Z,16.90
2019-03-12T23:39:07.598Z,16.90
2019-03-12T23:41:55.938Z,16.80
2019-03-12T23:44:44.912Z,16.80
2019-03-12T23:47:33.278Z,16.80
2019-03-12T23:50:21.587Z,16.70
2019-03-12T23:53:10.610Z,16.70
2019-03-12T23:55:59.052Z,16.60
2019-03-12T23:58:48.558Z,16.60
